Terminal Aerodrome Forecast
Issued by NWS Wilmington, OH

Current Version | Previous Version | Text Only | Print | Product List | Glossary Off
Versions: 1 2 3 4 5 6 7 8 9 10 11 12 13 14 15 16 17 18 19 20 21

318
FTUS41 KILN 180857 AAA
TAFCVG
TAF AMD
KCVG 180857Z 1809/1912 18004KT P6SM FEW250
     FM181600 19008KT P6SM SKC
     FM182300 19004KT P6SM SKC
     FM190600 19005KT P6SM SKC=

USA.gov is the U.S. government's official web portal to all federal, state and local government web resources and services.